createdAt,value
2022-08-23T00:01:20.369Z,100682.69
2022-08-23T00:03:49.535Z,100681.66
2022-08-23T00:06:18.913Z,100680.03
2022-08-23T00:08:49.063Z,100683.56
2022-08-23T00:11:29.969Z,100679.78
2022-08-23T00:13:59.224Z,100683.84
2022-08-23T00:16:27.508Z,100677.56
2022-08-23T00:18:55.824Z,100675.97
2022-08-23T00:21:24.008Z,100672.72
2022-08-23T00:23:53.272Z,100675.06
2022-08-23T00:26:21.557Z,100671.28
2022-08-23T00:28:49.915Z,100669.38
2022-08-23T00:31:18.165Z,100670.06
2022-08-23T00:33:46.049Z,100674.22
2022-08-23T00:36:13.860Z,100674.38
2022-08-23T00:38:42.010Z,100675.41
2022-08-23T00:41:11.227Z,100671.22
2022-08-23T00:44:00.580Z,100676.28
2022-08-23T00:47:01.475Z,100673.00
2022-08-23T00:49:30.841Z,100674.72
2022-08-23T00:52:04.248Z,100668.84
2022-08-23T00:54:33.998Z,100676.03
2022-08-23T00:57:07.008Z,100676.91
2022-08-23T00:59:35.122Z,100680.53
2022-08-23T01:02:03.461Z,100686.28
2022-08-23T01:04:38.835Z,100685.69
2022-08-23T01:07:11.663Z,100689.00
2022-08-23T01:09:43.048Z,100679.56
2022-08-23T01:12:32.407Z,100684.00
2022-08-23T01:15:03.851Z,100676.75
2022-08-23T01:17:36.597Z,100682.53
2022-08-23T01:20:08.654Z,100679.63
2022-08-23T01:22:43.306Z,100679.53
2022-08-23T01:25:15.213Z,100682.25
2022-08-23T01:27:45.767Z,100686.44
2022-08-23T01:30:19.942Z,100687.69
2022-08-23T01:32:51.560Z,100694.41
2022-08-23T01:37:55.027Z,100692.63
2022-08-23T01:40:24.499Z,100692.56
2022-08-23T01:42:52.956Z,100699.66
2022-08-23T01:45:20.841Z,100702.69
2022-08-23T01:47:49.042Z,100701.06
2022-08-23T01:50:17.582Z,100697.09
2022-08-23T01:52:46.803Z,100696.78
2022-08-23T01:55:17.874Z,100701.00
2022-08-23T01:57:50.430Z,100703.19
2022-08-23T02:00:21.322Z,100707.47
2022-08-23T02:02:49.717Z,100702.22
2022-08-23T02:05:19.252Z,100703.19
2022-08-23T02:07:48.682Z,100708.56
2022-08-23T02:10:18.936Z,100703.38
2022-08-23T02:12:48.897Z,100712.25
2022-08-23T02:15:18.937Z,100713.13
2022-08-23T02:17:48.545Z,100710.38
2022-08-23T02:20:16.468Z,100711.09
2022-08-23T02:22:44.581Z,100717.56
2022-08-23T02:25:12.415Z,100708.84
2022-08-23T02:27:44.193Z,100715.44
2022-08-23T02:30:15.258Z,100713.31
2022-08-23T02:32:43.861Z,100705.69
2022-08-23T02:35:13.332Z,100713.56
2022-08-23T02:37:41.170Z,100715.56
2022-08-23T02:40:10.268Z,100710.88
2022-08-23T02:42:39.149Z,100710.31
2022-08-23T02:45:08.429Z,100713.13
2022-08-23T02:47:43.244Z,100709.53
2022-08-23T02:50:17.762Z,100714.94
2022-08-23T02:52:45.722Z,100714.38
2022-08-23T02:55:13.909Z,100718.38
2022-08-23T02:57:42.105Z,100717.50
2022-08-23T03:00:14.656Z,100722.66
2022-08-23T03:02:45.317Z,100724.53
2022-08-23T03:05:14.565Z,100725.31
2022-08-23T03:07:43.092Z,100725.09
2022-08-23T03:10:12.370Z,100726.75
2022-08-23T03:12:46.279Z,100715.28
2022-08-23T03:15:14.495Z,100722.50
2022-08-23T03:17:44.453Z,100721.66
2022-08-23T03:20:12.576Z,100726.22
2022-08-23T03:22:40.533Z,100722.19
2022-08-23T03:25:18.940Z,100726.75
2022-08-23T03:28:06.538Z,100727.03
2022-08-23T03:30:37.232Z,100722.03
2022-08-23T03:33:07.938Z,100725.16
2022-08-23T03:35:36.297Z,100726.94
2022-08-23T03:38:05.142Z,100722.75
2022-08-23T03:40:33.182Z,100735.81
2022-08-23T03:43:01.886Z,100733.63
2022-08-23T03:45:31.239Z,100743.44
2022-08-23T03:47:59.935Z,100751.41
2022-08-23T03:50:29.652Z,100740.94
2022-08-23T03:52:57.676Z,100741.72
2022-08-23T03:55:26.128Z,100736.41
2022-08-23T03:57:54.198Z,100743.63
2022-08-23T04:00:22.906Z,100741.06
2022-08-23T04:02:53.745Z,100749.19
2022-08-23T04:05:22.987Z,100750.97
2022-08-23T04:07:55.073Z,100759.63
2022-08-23T04:10:25.566Z,100755.84
2022-08-23T04:12:56.065Z,100761.81
2022-08-23T04:15:25.343Z,100763.59
2022-08-23T04:17:53.249Z,100766.28
2022-08-23T04:20:23.451Z,100764.59
2022-08-23T04:22:58.298Z,100777.22
2022-08-23T04:25:34.519Z,100780.91
2022-08-23T04:28:06.403Z,100781.16
2022-08-23T04:30:35.362Z,100782.69
2022-08-23T04:33:10.841Z,100784.44
2022-08-23T04:35:42.345Z,100791.00
2022-08-23T04:38:24.220Z,100790.38
2022-08-23T04:41:15.710Z,100782.47
2022-08-23T04:43:46.197Z,100800.69
2022-08-23T04:46:16.479Z,100796.66
2022-08-23T04:48:47.789Z,100797.56
2022-08-23T04:51:18.083Z,100805.19
2022-08-23T04:53:47.419Z,100812.91
2022-08-23T04:56:33.608Z,100814.44
2022-08-23T04:59:01.482Z,100814.31
2022-08-23T05:01:29.946Z,100821.25
2022-08-23T05:03:58.370Z,100820.47
2022-08-23T05:06:28.814Z,100829.50
2022-08-23T05:08:58.525Z,100827.00
2022-08-23T05:11:26.480Z,100826.00
2022-08-23T05:13:54.331Z,100829.88
2022-08-23T05:16:23.591Z,100834.63
2022-08-23T05:19:00.593Z,100832.34
2022-08-23T05:21:28.504Z,100827.28
2022-08-23T05:23:57.768Z,100832.31
2022-08-23T05:26:27.398Z,100842.47
2022-08-23T05:28:55.459Z,100847.25
2022-08-23T05:31:30.466Z,100846.41
2022-08-23T05:34:01.840Z,100849.00
2022-08-23T05:36:48.114Z,100851.81
2022-08-23T05:39:35.962Z,100847.28
2022-08-23T05:42:07.829Z,100858.44
2022-08-23T05:44:37.194Z,100858.44
2022-08-23T05:47:10.353Z,100850.97
2022-08-23T05:49:46.153Z,100860.00
2022-08-23T05:52:15.045Z,100858.88
2022-08-23T05:54:46.240Z,100860.59
2022-08-23T05:57:40.648Z,100857.97
2022-08-23T06:00:13.321Z,100867.41
2022-08-23T06:02:46.733Z,100864.19
2022-08-23T06:05:14.950Z,100872.50
2022-08-23T06:07:44.753Z,100884.44
2022-08-23T06:10:16.313Z,100881.03
2022-08-23T06:12:49.375Z,100884.88
2022-08-23T06:15:17.235Z,100884.94
2022-08-23T06:17:45.098Z,100877.09
2022-08-23T06:20:15.732Z,100885.00
2022-08-23T06:22:58.992Z,100887.53
2022-08-23T06:25:28.961Z,100882.50
2022-08-23T06:28:08.239Z,100882.41
2022-08-23T06:30:40.062Z,100898.34
2022-08-23T06:33:37.603Z,100889.66
2022-08-23T06:36:36.992Z,100886.19
2022-08-23T06:39:17.989Z,100891.75
2022-08-23T06:42:38.516Z,100883.75
2022-08-23T06:45:07.382Z,100894.41
2022-08-23T06:47:42.618Z,100881.63
2022-08-23T06:50:11.460Z,100887.28
2022-08-23T06:52:58.369Z,100890.66
2022-08-23T06:55:55.183Z,100890.53
2022-08-23T06:58:30.193Z,100886.19
2022-08-23T07:01:34.969Z,100895.97
2022-08-23T07:04:11.096Z,100904.84
2022-08-23T07:06:57.139Z,100905.72
2022-08-23T07:09:25.505Z,100907.31
2022-08-23T07:11:53.364Z,100916.00
2022-08-23T07:14:23.830Z,100905.50
2022-08-23T07:16:56.108Z,100915.13
2022-08-23T07:19:29.296Z,100911.34
2022-08-23T07:21:58.252Z,100915.63
2022-08-23T07:24:32.097Z,100919.38
2022-08-23T07:27:06.213Z,100925.47
2022-08-23T07:29:39.505Z,100922.56
2022-08-23T07:32:07.988Z,100915.28
2022-08-23T07:34:36.906Z,100918.03
2022-08-23T07:37:15.301Z,100914.50
2022-08-23T07:39:44.302Z,100925.25
2022-08-23T07:42:23.520Z,100924.03
2022-08-23T07:44:54.949Z,100922.28
2022-08-23T07:47:25.500Z,100926.50
2022-08-23T07:49:56.816Z,100924.16
2022-08-23T07:52:24.770Z,100935.00
2022-08-23T07:54:53.029Z,100927.66
2022-08-23T07:57:35.834Z,100928.44
2022-08-23T08:00:15.521Z,100932.16
2022-08-23T08:03:00.553Z,100929.78
2022-08-23T08:05:39.277Z,100929.53
2022-08-23T08:08:08.921Z,100935.81
2022-08-23T08:10:40.805Z,100933.97
2022-08-23T08:13:09.505Z,100933.41
2022-08-23T08:15:42.331Z,100934.69
2022-08-23T08:18:13.959Z,100935.84
2022-08-23T08:21:00.165Z,100932.44
2022-08-23T08:23:48.053Z,100940.00
2022-08-23T08:26:40.027Z,100934.78
2022-08-23T08:29:10.533Z,100936.91
2022-08-23T08:31:41.744Z,100934.22
2022-08-23T08:34:10.637Z,100928.97
2022-08-23T08:36:42.018Z,100934.19
2022-08-23T08:39:18.695Z,100927.66
2022-08-23T08:42:00.341Z,100931.09
2022-08-23T08:44:39.722Z,100939.03
2022-08-23T08:47:15.313Z,100936.34
2022-08-23T08:49:48.952Z,100933.69
2022-08-23T08:52:21.684Z,100926.81
2022-08-23T08:54:53.304Z,100926.78
2022-08-23T08:57:27.694Z,100925.91
2022-08-23T09:00:00.571Z,100923.78
2022-08-23T09:02:33.923Z,100929.88
2022-08-23T09:05:12.324Z,100926.41
2022-08-23T09:07:45.254Z,100930.53
2022-08-23T09:10:41.031Z,100937.25
2022-08-23T09:13:30.833Z,100934.47
2022-08-23T09:16:09.422Z,100934.16
2022-08-23T09:18:39.333Z,100940.22
2022-08-23T09:21:09.653Z,100937.31
2022-08-23T09:23:41.432Z,100936.34
2022-08-23T09:26:20.292Z,100930.91
2022-08-23T09:28:50.591Z,100931.56
2022-08-23T09:31:40.513Z,100936.06
2022-08-23T09:34:15.867Z,100934.84
2022-08-23T09:37:07.833Z,100930.41
2022-08-23T09:39:38.886Z,100921.53
2022-08-23T09:42:28.543Z,100923.69
2022-08-23T09:44:57.905Z,100922.41
2022-08-23T09:47:34.165Z,100927.59
2022-08-23T09:50:19.102Z,100923.19
2022-08-23T09:52:49.004Z,100923.84
2022-08-23T09:55:30.860Z,100921.72
2022-08-23T09:58:00.904Z,100919.47
2022-08-23T10:00:33.849Z,100926.88
2022-08-23T10:03:26.162Z,100915.56
2022-08-23T10:06:02.872Z,100912.59
2022-08-23T10:08:42.818Z,100909.41
2022-08-23T10:11:19.349Z,100907.81
2022-08-23T10:13:48.880Z,100910.97
2022-08-23T10:16:33.828Z,100909.56
2022-08-23T10:19:18.463Z,100908.59
2022-08-23T10:21:58.889Z,100908.97
2022-08-23T10:24:40.027Z,100902.59
2022-08-23T10:27:46.510Z,100907.91
2022-08-23T10:30:17.930Z,100912.59
2022-08-23T10:32:58.608Z,100910.59
2022-08-23T10:35:33.037Z,100905.25
2022-08-23T10:38:17.542Z,100911.16
2022-08-23T10:40:57.114Z,100910.59
2022-08-23T10:43:33.356Z,100908.72
2022-08-23T10:46:03.421Z,100907.38
2022-08-23T10:48:40.810Z,100897.38
2022-08-23T10:51:12.753Z,100898.16
2022-08-23T10:53:46.671Z,100900.59
2022-08-23T10:56:19.185Z,100896.06
2022-08-23T10:58:58.146Z,100892.66
2022-08-23T11:01:31.095Z,100888.28
2022-08-23T11:04:03.615Z,100888.09
2022-08-23T11:06:50.992Z,100890.59
2022-08-23T11:09:48.810Z,100885.63
2022-08-23T11:12:26.018Z,100883.25
2022-08-23T11:15:33.084Z,100878.59
2022-08-23T11:18:04.949Z,100880.78
2022-08-23T11:21:01.106Z,100887.91
2022-08-23T11:23:41.178Z,100883.19
2022-08-23T11:26:36.334Z,100886.50
2022-08-23T11:29:28.992Z,100883.91
2022-08-23T11:32:37.942Z,100891.03
2022-08-23T11:35:35.294Z,100884.69
2022-08-23T11:38:07.567Z,100871.31
2022-08-23T11:41:17.736Z,100873.25
2022-08-23T11:43:48.484Z,100873.34
2022-08-23T11:46:26.812Z,100870.72
2022-08-23T11:49:27.939Z,100868.91
2022-08-23T11:52:08.489Z,100869.97
2022-08-23T11:54:51.889Z,100861.25
2022-08-23T11:57:28.207Z,100859.69
2022-08-23T12:00:11.073Z,100852.34
2022-08-23T12:02:52.115Z,100848.66
2022-08-23T12:05:32.474Z,100854.34
2022-08-23T12:08:42.906Z,100854.31
2022-08-23T12:11:13.059Z,100845.09
2022-08-23T12:13:52.028Z,100833.09
2022-08-23T12:16:43.554Z,100835.13
2022-08-23T12:19:29.544Z,100836.16
2022-08-23T12:21:57.831Z,100825.53
2022-08-23T12:24:29.804Z,100827.25
2022-08-23T12:27:09.670Z,100818.00
2022-08-23T12:29:56.735Z,100822.31
2022-08-23T12:32:32.539Z,100815.13
2022-08-23T12:35:13.330Z,100824.53
2022-08-23T12:37:48.585Z,100822.78
2022-08-23T12:40:23.135Z,100826.75
2022-08-23T12:42:52.401Z,100827.81
2022-08-23T12:45:23.376Z,100818.06
2022-08-23T12:47:58.972Z,100816.94
2022-08-23T12:50:33.018Z,100819.66
2022-08-23T12:53:03.890Z,100824.25
2022-08-23T12:55:34.290Z,100822.38
2022-08-23T12:58:04.702Z,100821.53
2022-08-23T13:00:36.013Z,100826.69
2022-08-23T13:03:08.389Z,100825.06
2022-08-23T13:05:44.429Z,100817.81
2022-08-23T13:08:15.797Z,100818.34
2022-08-23T13:10:46.137Z,100819.31
2022-08-23T13:13:20.060Z,100815.59
2022-08-23T13:15:52.753Z,100819.13
2022-08-23T13:18:30.076Z,100815.75
2022-08-23T13:21:17.503Z,100814.44
2022-08-23T13:23:47.867Z,100817.06
2022-08-23T13:26:41.899Z,100813.25
2022-08-23T13:29:14.340Z,100804.91
2022-08-23T13:32:02.640Z,100813.09
2022-08-23T13:34:40.469Z,100805.75
2022-08-23T13:37:22.663Z,100799.84
2022-08-23T13:39:55.908Z,100804.69
2022-08-23T13:42:34.988Z,100802.84
2022-08-23T13:45:15.987Z,100802.94
2022-08-23T13:47:48.929Z,100804.50
2022-08-23T13:50:22.882Z,100803.72
2022-08-23T13:53:13.353Z,100802.91
2022-08-23T13:55:45.130Z,100801.03
2022-08-23T13:58:15.777Z,100799.22
2022-08-23T14:00:45.902Z,100799.84
2022-08-23T14:03:24.041Z,100797.28
2022-08-23T14:05:52.817Z,100784.06
2022-08-23T14:08:21.258Z,100796.06
2022-08-23T14:10:49.419Z,100799.38
2022-08-23T14:13:18.920Z,100799.81
2022-08-23T14:18:36.546Z,100792.38
2022-08-23T14:21:04.407Z,100787.50
2022-08-23T14:23:32.343Z,100790.69
2022-08-23T14:26:00.572Z,100783.63
2022-08-23T14:28:31.240Z,100793.47
2022-08-23T14:31:00.509Z,100789.72
2022-08-23T14:33:28.331Z,100782.22
2022-08-23T14:35:57.241Z,100790.31
2022-08-23T14:38:25.427Z,100787.06
2022-08-23T14:40:57.598Z,100787.50
2022-08-23T14:43:25.766Z,100784.66
2022-08-23T14:45:55.123Z,100779.41
2022-08-23T14:48:25.260Z,100785.56
2022-08-23T14:50:54.205Z,100782.31
2022-08-23T14:53:26.300Z,100775.81
2022-08-23T14:56:18.686Z,100794.47
2022-08-23T14:58:42.895Z,100779.44
2022-08-23T15:01:12.314Z,100782.47
2022-08-23T15:03:43.008Z,100781.41
2022-08-23T15:06:11.565Z,100791.63
2022-08-23T15:08:40.519Z,100786.56
2022-08-23T15:14:00.036Z,100789.41
2022-08-23T15:16:28.827Z,100784.53
2022-08-23T15:18:59.779Z,100777.66
2022-08-23T15:21:27.955Z,100784.88
2022-08-23T15:23:55.880Z,100780.81
2022-08-23T15:26:29.761Z,100785.91
2022-08-23T15:28:57.978Z,100776.94
2022-08-23T15:31:26.157Z,100777.81
2022-08-23T15:33:53.998Z,100779.00
2022-08-23T15:36:23.821Z,100765.63
2022-08-23T15:38:52.228Z,100769.88
2022-08-23T15:41:20.775Z,100775.97
2022-08-23T15:43:48.827Z,100771.75
2022-08-23T15:46:20.295Z,100771.56
2022-08-23T15:48:52.091Z,100774.28
2022-08-23T15:51:20.344Z,100773.44
2022-08-23T15:53:49.725Z,100770.38
2022-08-23T15:56:20.808Z,100763.75
2022-08-23T15:58:49.220Z,100771.72
2022-08-23T16:01:20.765Z,100774.09
2022-08-23T16:03:50.847Z,100765.81
2022-08-23T16:06:18.879Z,100771.06
2022-08-23T16:08:52.297Z,100771.41
2022-08-23T16:11:20.907Z,100763.06
2022-08-23T16:13:53.693Z,100769.38
2022-08-23T16:16:25.909Z,100768.53
2022-08-23T16:18:54.784Z,100765.28
2022-08-23T16:21:23.171Z,100765.06
2022-08-23T16:23:52.371Z,100765.75
2022-08-23T16:26:22.304Z,100767.50
2022-08-23T16:28:52.891Z,100762.19
2022-08-23T16:31:20.896Z,100759.47
2022-08-23T16:34:07.878Z,100769.75
2022-08-23T16:36:35.730Z,100760.88
2022-08-23T16:39:05.516Z,100768.31
2022-08-23T16:41:33.594Z,100767.41
2022-08-23T16:44:01.698Z,100766.03
2022-08-23T16:46:29.633Z,100769.25
2022-08-23T16:48:58.112Z,100773.63
2022-08-23T16:51:26.640Z,100774.94
2022-08-23T16:54:01.787Z,100769.66
2022-08-23T16:56:33.499Z,100772.41
2022-08-23T16:59:01.552Z,100772.25
2022-08-23T17:01:33.013Z,100776.50
2022-08-23T17:04:01.021Z,100777.75
2022-08-23T17:06:28.826Z,100780.53
2022-08-23T17:08:56.719Z,100778.06
2022-08-23T17:11:24.525Z,100785.41
2022-08-23T17:13:59.312Z,100775.28
2022-08-23T17:16:34.012Z,100783.38
2022-08-23T17:19:02.312Z,100782.97
2022-08-23T17:21:30.332Z,100789.25
2022-08-23T17:23:58.342Z,100785.19
2022-08-23T17:26:26.229Z,100789.28
2022-08-23T17:28:54.177Z,100782.72
2022-08-23T17:31:23.497Z,100788.50
2022-08-23T17:33:51.521Z,100786.75
2022-08-23T17:36:28.165Z,100788.91
2022-08-23T17:38:57.435Z,100792.38
2022-08-23T17:41:27.217Z,100795.16
2022-08-23T17:43:55.094Z,100794.75
2022-08-23T17:46:25.239Z,100803.38
2022-08-23T17:48:53.502Z,100803.88
2022-08-23T17:51:21.555Z,100808.19
2022-08-23T17:53:49.412Z,100807.19
2022-08-23T17:56:17.306Z,100818.09
2022-08-23T17:58:45.795Z,100816.25
2022-08-23T18:01:13.868Z,100821.69
2022-08-23T18:03:43.439Z,100819.72
2022-08-23T18:06:16.996Z,100825.91
2022-08-23T18:08:45.778Z,100822.78
2022-08-23T18:11:14.023Z,100823.81
2022-08-23T18:13:41.841Z,100827.69
2022-08-23T18:16:09.764Z,100835.69
2022-08-23T18:18:37.825Z,100834.41
2022-08-23T18:21:08.672Z,100842.53
2022-08-23T18:23:37.116Z,100842.34
2022-08-23T18:26:06.462Z,100849.91
2022-08-23T18:28:33.464Z,100850.31
2022-08-23T18:31:03.681Z,100853.88
2022-08-23T18:33:46.781Z,100857.00
2022-08-23T18:36:16.977Z,100859.97
2022-08-23T18:38:44.778Z,100863.22
2022-08-23T18:41:14.155Z,100865.34
2022-08-23T18:43:42.991Z,100863.97
2022-08-23T18:46:13.360Z,100870.63
2022-08-23T18:48:41.175Z,100871.03
2022-08-23T18:51:17.683Z,100878.00
2022-08-23T18:53:47.627Z,100875.44
2022-08-23T18:56:15.604Z,100880.22
2022-08-23T18:58:43.835Z,100874.22
2022-08-23T19:01:23.256Z,100890.63
2022-08-23T19:03:51.991Z,100894.28
2022-08-23T19:06:20.319Z,100888.47
2022-08-23T19:08:49.583Z,100901.63
2022-08-23T19:11:18.210Z,100898.75
2022-08-23T19:13:46.006Z,100902.94
2022-08-23T19:16:15.742Z,100903.88
2022-08-23T19:18:46.431Z,100912.88
2022-08-23T19:21:16.236Z,100914.53
2022-08-23T19:23:44.211Z,100914.53
2022-08-23T19:26:15.976Z,100918.66
2022-08-23T19:28:44.420Z,100910.72
2022-08-23T19:31:12.623Z,100915.41
2022-08-23T19:33:41.116Z,100917.69
2022-08-23T19:36:23.787Z,100926.50
2022-08-23T19:38:57.576Z,100917.75
2022-08-23T19:41:26.925Z,100918.47
2022-08-23T19:43:55.423Z,100925.47
2022-08-23T19:46:24.143Z,100918.41
2022-08-23T19:48:51.993Z,100923.78
2022-08-23T19:51:21.874Z,100927.44
2022-08-23T19:54:03.586Z,100922.41
2022-08-23T19:56:37.175Z,100939.63
2022-08-23T19:59:08.877Z,100930.63
2022-08-23T20:01:37.641Z,100935.50
2022-08-23T20:04:07.553Z,100940.38
2022-08-23T20:06:35.536Z,100939.00
2022-08-23T20:09:05.028Z,100944.84
2022-08-23T20:11:34.860Z,100952.53
2022-08-23T20:14:05.178Z,100953.47
2022-08-23T20:16:33.969Z,100953.13
2022-08-23T20:19:02.333Z,100963.25
2022-08-23T20:21:30.466Z,100964.69
2022-08-23T20:24:04.027Z,100961.75
2022-08-23T20:26:34.895Z,100958.84
2022-08-23T20:29:04.883Z,100959.19
2022-08-23T20:31:36.320Z,100953.94
2022-08-23T20:34:05.230Z,100959.06
2022-08-23T20:36:33.351Z,100959.53
2022-08-23T20:39:02.442Z,100961.97
2022-08-23T20:41:32.334Z,100958.22
2022-08-23T20:44:03.321Z,100954.81
2022-08-23T20:46:31.585Z,100958.56
2022-08-23T20:48:59.652Z,100953.44
2022-08-23T20:51:29.314Z,100955.84
2022-08-23T20:53:58.191Z,100952.91
2022-08-23T20:56:28.632Z,100950.63
2022-08-23T20:58:56.860Z,100960.09
2022-08-23T21:01:26.553Z,100961.09
2022-08-23T21:03:54.900Z,100959.78
2022-08-23T21:06:25.569Z,100967.72
2022-08-23T21:08:55.891Z,100963.13
2022-08-23T21:11:26.032Z,100964.72
2022-08-23T21:13:54.634Z,100971.94
2022-08-23T21:16:23.260Z,100970.31
2022-08-23T21:18:55.410Z,100976.53
2022-08-23T21:21:23.685Z,100975.91
2022-08-23T21:23:51.886Z,100980.78
2022-08-23T21:26:21.012Z,100976.38
2022-08-23T21:28:49.335Z,100983.34
2022-08-23T21:31:19.383Z,100976.78
2022-08-23T21:33:47.377Z,100978.59
2022-08-23T21:36:18.288Z,100977.97
2022-08-23T21:38:46.509Z,100980.44
2022-08-23T21:41:30.203Z,100975.63
2022-08-23T21:43:58.009Z,100974.16
2022-08-23T21:46:26.111Z,100988.72
2022-08-23T21:48:54.469Z,100983.31
2022-08-23T21:51:24.622Z,100988.44
2022-08-23T21:53:52.722Z,100982.88
2022-08-23T21:56:20.640Z,100979.47
2022-08-23T21:58:50.627Z,100984.69
2022-08-23T22:01:19.558Z,100983.94
2022-08-23T22:03:47.595Z,100976.03
2022-08-23T22:06:17.733Z,100979.03
2022-08-23T22:08:47.362Z,100979.44
2022-08-23T22:11:15.813Z,100973.75
2022-08-23T22:13:44.725Z,100980.53
2022-08-23T22:16:13.151Z,100985.09
2022-08-23T22:18:42.755Z,100988.25
2022-08-23T22:21:11.219Z,100989.25
2022-08-23T22:23:43.214Z,100988.88
2022-08-23T22:26:14.302Z,100981.81
2022-08-23T22:28:44.762Z,100982.44
2022-08-23T22:31:14.993Z,100986.91
2022-08-23T22:33:45.010Z,100991.00
2022-08-23T22:36:16.482Z,100997.09
2022-08-23T22:38:44.955Z,100992.81
2022-08-23T22:41:16.766Z,100990.63
2022-08-23T22:43:44.871Z,100986.31
2022-08-23T22:46:13.160Z,100982.81
2022-08-23T22:48:41.094Z,100996.16
2022-08-23T22:51:11.229Z,100987.97
2022-08-23T22:53:41.140Z,100992.69
2022-08-23T22:56:11.306Z,100990.22
2022-08-23T22:58:41.175Z,100991.09
2022-08-23T23:01:13.433Z,100985.63
2022-08-23T23:03:42.070Z,100990.91
2022-08-23T23:06:10.445Z,100994.63
2022-08-23T23:08:38.268Z,100999.28
2022-08-23T23:11:08.824Z,101002.13
2022-08-23T23:13:36.785Z,101003.00
2022-08-23T23:16:07.996Z,101005.63
2022-08-23T23:18:36.332Z,101000.34
2022-08-23T23:21:04.838Z,100993.41
2022-08-23T23:23:34.997Z,101001.13
2022-08-23T23:26:03.686Z,100991.41
2022-08-23T23:28:32.086Z,100991.59
2022-08-23T23:30:59.893Z,100995.41
2022-08-23T23:33:29.089Z,100984.44
2022-08-23T23:35:56.981Z,100997.88
2022-08-23T23:38:24.776Z,100995.13
2022-08-23T23:40:52.729Z,101001.25
2022-08-23T23:43:20.549Z,101000.00
2022-08-23T23:45:48.400Z,101004.03
2022-08-23T23:48:16.656Z,101003.03
2022-08-23T23:50:46.702Z,101001.84
2022-08-23T23:53:15.278Z,101000.16
2022-08-23T23:55:43.221Z,100996.06
2022-08-23T23:58:11.216Z,100990.50
